Time;durP1;ratioP1;P1;durP2;ratioP2;P2;SDS_P1;SDS_P2;PMS_P1;PMS_P2;Temp;Humidity;BMP_temperature;BMP_pressure;BME280_temperature;BME280_humidity;BME280_pressure;Samples;Min_cycle;Max_cycle;Signal;HPM_P1;HPM_P2
2022/06/28 14:14:18;;;;;;;4.75;1.17;;;21.70;72.20;;;;;;5068994;28;20375;-52
2022/06/28 14:16:45;;;;;;;3.97;0.88;;;21.60;73.40;;;;;;5054320;28;20755;-48
2022/06/28 14:19:12;;;;;;;3.30;0.98;;;21.70;73.40;;;;;;5049702;28;20064;-56
2022/06/28 14:21:38;;;;;;;4.18;0.90;;;21.80;72.50;;;;;;5049521;28;20523;-51
2022/06/28 14:24:05;;;;;;;4.57;1.00;;;21.90;71.30;;;;;;5049189;28;20132;-45
2022/06/28 14:26:33;;;;;;;2.95;1.10;;;22.10;72.30;;;;;;5049009;28;20061;-49
2022/06/28 14:29:00;;;;;;;5.47;1.00;;;22.20;70.10;;;;;;5046842;28;20125;-51
2022/06/28 14:31:27;;;;;;;3.50;1.08;;;22.20;70.60;;;;;;5049712;28;20052;-52
2022/06/28 14:34:13;;;;;;;4.53;1.10;;;22.20;71.20;;;;;;5049568;28;20094;-48
2022/06/28 14:36:41;;;;;;;6.78;1.10;;;22.10;70.90;;;;;;5048741;28;20042;-50
2022/06/28 14:39:08;;;;;;;7.50;1.42;;;22.00;70.10;;;;;;5049513;28;20403;-50
2022/06/28 14:41:35;;;;;;;3.58;1.08;;;22.00;70.90;;;;;;5048979;28;20037;-53
2022/06/28 14:44:02;;;;;;;4.07;1.08;;;21.90;70.60;;;;;;5049530;28;20045;-48
2022/06/28 14:46:29;;;;;;;3.13;0.90;;;21.80;70.80;;;;;;5049724;28;20045;-47
2022/06/28 14:48:57;;;;;;;2.95;0.88;;;21.90;69.80;;;;;;5049624;28;20404;-54
2022/06/28 14:51:24;;;;;;;3.53;0.85;;;21.90;70.50;;;;;;5048076;28;20045;-50
2022/06/28 14:53:51;;;;;;;2.40;0.70;;;22.00;69.80;;;;;;5049226;28;20068;-50
2022/06/28 14:56:18;;;;;;;5.10;1.02;;;22.00;69.70;;;;;;5049319;28;20516;-51
2022/06/28 14:58:44;;;;;;;2.35;0.82;;;22.10;69.50;;;;;;5049363;28;20099;-50
2022/06/28 15:01:11;;;;;;;5.50;0.82;;;21.90;70.30;;;;;;5049328;28;20037;-53
2022/06/28 15:03:38;;;;;;;4.45;1.20;;;22.10;70.60;;;;;;5047748;28;20045;-48
2022/06/28 15:06:14;;;;;;;3.72;0.98;;;22.20;70.40;;;;;;5049088;28;20484;-53
2022/06/28 15:08:41;;;;;;;2.65;0.90;;;22.30;69.90;;;;;;5047757;28;20049;-48
2022/06/28 15:11:08;;;;;;;4.90;1.08;;;22.30;71.20;;;;;;5048940;28;20099;-52
2022/06/28 15:13:34;;;;;;;6.32;1.02;;;22.40;69.80;;;;;;5048365;28;20060;-51
2022/06/28 15:16:01;;;;;;;5.78;1.10;;;22.30;70.10;;;;;;5048774;28;20045;-51
2022/06/28 15:18:28;;;;;;;3.38;1.10;;;22.30;70.30;;;;;;5048843;28;20056;-46
2022/06/28 15:20:55;;;;;;;5.57;1.23;;;22.30;69.60;;;;;;5048646;28;20045;-47
2022/06/28 15:31:39;;;;;;;2.92;0.80;;;22.10;68.20;;;;;;5035543;28;20019;-53
2022/06/28 15:34:06;;;;;;;9.18;1.10;;;22.10;69.50;;;;;;5035348;28;20077;-52
2022/06/28 15:36:32;;;;;;;3.75;1.00;;;22.10;68.80;;;;;;5035494;28;20042;-55
2022/06/28 15:38:59;;;;;;;4.75;0.95;;;22.10;69.30;;;;;;5033854;28;20030;-50
2022/06/28 15:41:26;;;;;;;3.75;0.95;;;22.30;69.60;;;;;;5035277;28;20048;-50
2022/06/28 15:43:53;;;;;;;5.55;1.20;;;22.30;69.60;;;;;;5034742;28;20484;-54
2022/06/28 15:46:20;;;;;;;4.80;1.05;;;22.20;69.70;;;;;;5035254;28;20037;-51
2022/06/28 15:48:46;;;;;;;5.22;1.10;;;22.10;70.40;;;;;;5032535;28;20088;-47
2022/06/28 15:51:13;;;;;;;4.20;1.05;;;22.30;70.40;;;;;;5035028;28;20129;-50
2022/06/28 15:53:40;;;;;;;4.20;1.40;;;22.80;69.20;;;;;;5034981;28;20400;-46
2022/06/28 15:56:07;;;;;;;5.20;1.48;;;23.50;68.90;;;;;;5035055;28;20046;-46
2022/06/28 15:58:34;;;;;;;4.90;1.13;;;24.10;68.50;;;;;;5036994;28;20049;-48
2022/06/28 16:01:01;;;;;;;5.32;1.20;;;24.80;67.30;;;;;;5034650;28;20099;-50
2022/06/28 16:03:28;;;;;;;3.35;1.00;;;25.50;66.30;;;;;;5037689;28;20377;-51
2022/06/28 16:05:54;;;;;;;6.72;1.25;;;25.80;65.80;;;;;;5034720;28;20102;-47
2022/06/28 16:08:21;;;;;;;4.88;1.30;;;25.60;65.00;;;;;;5034060;28;20053;-50
2022/06/28 16:10:50;;;;;;;5.13;1.10;;;25.70;64.40;;;;;;5034797;28;20049;-50
2022/06/28 16:13:17;;;;;;;4.22;1.10;;;26.10;64.20;;;;;;5034126;28;20061;-52
2022/06/28 16:15:44;;;;;;;6.47;1.58;;;26.40;62.70;;;;;;5037716;28;20404;-52
2022/06/28 16:18:11;;;;;;;6.53;1.50;;;26.40;63.40;;;;;;5034051;28;20075;-52
2022/06/28 16:20:38;;;;;;;4.50;1.50;;;26.40;61.70;;;;;;5040066;28;20400;-53
2022/06/28 16:23:05;;;;;;;5.10;1.48;;;26.20;61.20;;;;;;5028620;28;20038;-48
2022/06/28 16:25:32;;;;;;;7.05;1.42;;;25.90;61.10;;;;;;5030182;28;20075;-49
2022/06/28 16:28:11;;;;;;;5.78;1.30;;;25.60;60.70;;;;;;5034852;28;20044;-56
2022/06/28 16:30:37;;;;;;;10.63;1.35;;;25.30;60.30;;;;;;5034792;28;20037;-50
2022/06/28 16:33:05;;;;;;;6.95;1.20;;;25.20;61.20;;;;;;5038016;28;20048;-49
2022/06/28 16:35:32;;;;;;;4.00;1.20;;;25.40;60.60;;;;;;5033869;28;20052;-52
2022/06/28 16:37:59;;;;;;;5.78;1.25;;;25.60;61.00;;;;;;5033236;28;20069;-53
2022/06/28 16:40:26;;;;;;;6.20;1.40;;;25.80;60.50;;;;;;5034299;28;20045;-52
2022/06/28 16:42:52;;;;;;;8.60;1.52;;;25.80;59.00;;;;;;5035477;28;20053;-53
2022/06/28 16:45:19;;;;;;;5.53;1.38;;;25.80;59.40;;;;;;5034266;28;20060;-50
2022/06/28 16:47:46;;;;;;;3.65;1.15;;;25.80;57.70;;;;;;5034778;28;20033;-52
2022/06/28 16:50:17;;;;;;;5.18;1.30;;;25.90;58.20;;;;;;5028529;28;20076;-54
2022/06/28 16:52:50;;;;;;;7.30;1.40;;;25.90;57.90;;;;;;5033333;28;20091;-49
2022/06/28 16:55:16;;;;;;;4.57;1.52;;;26.00;59.00;;;;;;5034072;28;20049;-55
2022/06/28 16:57:43;;;;;;;5.18;1.60;;;26.00;57.40;;;;;;5039208;28;20430;-52
2022/06/28 17:00:11;;;;;;;3.22;0.98;;;25.90;57.90;;;;;;5034044;28;20060;-51
2022/06/28 17:02:38;;;;;;;4.93;1.42;;;25.60;59.90;;;;;;5036951;28;20091;-53
2022/06/28 17:05:05;;;;;;;5.72;1.50;;;25.10;58.80;;;;;;5034101;28;20041;-52
2022/06/28 17:07:31;;;;;;;3.85;1.33;;;24.70;59.90;;;;;;5036565;28;20063;-52
2022/06/28 17:09:58;;;;;;;5.05;1.40;;;24.20;61.30;;;;;;5016292;28;20077;-47
2022/06/28 17:12:25;;;;;;;4.55;1.35;;;23.90;61.60;;;;;;5034919;28;20036;-49
2022/06/28 17:14:52;;;;;;;3.72;1.52;;;23.60;60.70;;;;;;5027472;28;20071;-50
2022/06/28 17:17:19;;;;;;;6.07;1.38;;;23.50;61.70;;;;;;5027369;28;20095;-51
2022/06/28 17:19:46;;;;;;;4.30;1.40;;;23.40;62.40;;;;;;5033807;28;20050;-52
2022/06/28 17:22:13;;;;;;;8.68;1.70;;;23.30;62.50;;;;;;5033888;28;20120;-53
2022/06/28 17:24:39;;;;;;;7.70;1.30;;;23.00;63.30;;;;;;5033685;28;20049;-51
2022/06/28 17:27:06;;;;;;;6.78;1.42;;;22.80;63.70;;;;;;5031232;28;20057;-52
2022/06/28 17:29:33;;;;;;;7.07;1.20;;;22.60;63.40;;;;;;5033572;28;20037;-49
2022/06/28 17:32:00;;;;;;;6.70;1.65;;;22.50;64.50;;;;;;5033465;28;20453;-50
2022/06/28 17:34:27;;;;;;;5.65;1.35;;;22.50;65.20;;;;;;5033349;28;20045;-51
2022/06/28 17:36:54;;;;;;;5.13;1.40;;;22.50;65.00;;;;;;5032766;28;20096;-55
2022/06/28 17:39:20;;;;;;;8.70;1.60;;;22.50;65.40;;;;;;5033717;28;20057;-49
2022/06/28 17:41:47;;;;;;;7.55;1.50;;;22.50;66.30;;;;;;5033294;28;20121;-54
2022/06/28 17:44:14;;;;;;;5.45;1.30;;;22.60;65.70;;;;;;5031899;28;20421;-49
2022/06/28 17:46:44;;;;;;;5.55;1.45;;;22.50;65.40;;;;;;5035306;28;20415;-49
2022/06/28 17:49:11;;;;;;;5.20;1.48;;;22.50;66.00;;;;;;5033581;28;20069;-47
2022/06/28 17:51:38;;;;;;;6.35;1.35;;;22.50;66.00;;;;;;5033381;28;20057;-45
2022/06/28 17:54:05;;;;;;;6.93;1.33;;;22.40;66.10;;;;;;5032216;28;20095;-45
2022/06/28 17:56:32;;;;;;;6.78;1.52;;;22.20;66.50;;;;;;5031871;28;20412;-46
2022/06/28 17:58:59;;;;;;;4.85;1.30;;;22.10;66.80;;;;;;5031845;28;20041;-48
2022/06/28 18:01:26;;;;;;;5.13;1.30;;;22.00;66.80;;;;;;5031691;28;20076;-47
2022/06/28 18:03:53;;;;;;;4.80;1.30;;;21.90;67.90;;;;;;5031458;28;20046;-48
2022/06/28 18:06:20;;;;;;;5.90;1.58;;;21.70;67.50;;;;;;5030571;28;20042;-52
2022/06/28 18:08:47;;;;;;;4.68;1.50;;;21.60;67.00;;;;;;5031150;28;20037;-47
2022/06/28 18:11:13;;;;;;;4.90;1.50;;;21.50;67.50;;;;;;5032996;28;20042;-49
2022/06/28 18:13:40;;;;;;;5.93;1.40;;;21.60;67.40;;;;;;5032763;28;20056;-52
2022/06/28 18:16:07;;;;;;;7.30;1.58;;;21.70;67.50;;;;;;5032915;28;20198;-47
2022/06/28 18:18:34;;;;;;;6.90;1.65;;;21.80;66.90;;;;;;5034184;28;20045;-54
2022/06/28 18:21:01;;;;;;;6.65;1.73;;;21.70;66.80;;;;;;5033033;28;20041;-48
2022/06/28 18:23:28;;;;;;;4.40;1.38;;;21.50;66.60;;;;;;5033287;28;20037;-52
2022/06/28 18:25:54;;;;;;;9.43;1.63;;;21.40;66.90;;;;;;5033360;28;20033;-52
2022/06/28 18:28:21;;;;;;;4.88;1.33;;;21.40;67.20;;;;;;5033301;28;20041;-50
2022/06/28 18:30:48;;;;;;;4.47;1.23;;;21.40;67.70;;;;;;5033182;28;20448;-52
2022/06/28 18:33:15;;;;;;;5.03;1.40;;;21.40;67.20;;;;;;5032941;28;20473;-55
2022/06/28 18:35:42;;;;;;;5.05;1.20;;;21.30;67.00;;;;;;5032794;28;20132;-47
2022/06/28 18:38:09;;;;;;;4.47;1.10;;;21.30;67.20;;;;;;5033009;28;20099;-52
2022/06/28 18:40:35;;;;;;;4.10;1.02;;;21.20;67.70;;;;;;5032698;28;20137;-52
2022/06/28 18:43:02;;;;;;;5.28;1.27;;;21.10;68.10;;;;;;5032376;28;20045;-45
2022/06/28 18:45:30;;;;;;;8.57;1.17;;;21.10;68.50;;;;;;5032446;28;20057;-50
2022/06/28 18:47:57;;;;;;;5.35;1.58;;;21.00;68.20;;;;;;5038492;28;20087;-49
2022/06/28 18:50:23;;;;;;;7.63;1.33;;;20.90;68.40;;;;;;5032700;28;20037;-51
2022/06/28 18:52:51;;;;;;;4.68;1.20;;;20.80;67.80;;;;;;5032778;28;20037;-49
2022/06/28 18:55:18;;;;;;;6.35;1.42;;;20.70;69.10;;;;;;5031364;28;20153;-50
2022/06/28 18:57:45;;;;;;;5.25;1.45;;;20.70;69.30;;;;;;5032525;28;20408;-49
2022/06/28 19:00:13;;;;;;;5.88;1.20;;;20.60;70.10;;;;;;5034754;28;20045;-53
2022/06/28 19:02:40;;;;;;;7.72;1.35;;;20.50;69.40;;;;;;5036628;28;20045;-54
2022/06/28 19:05:07;;;;;;;5.30;1.52;;;20.50;69.50;;;;;;5036314;28;20467;-53
2022/06/28 19:07:33;;;;;;;5.72;1.40;;;20.50;69.00;;;;;;5036228;28;20041;-52
2022/06/28 19:10:00;;;;;;;5.93;1.40;;;20.40;69.60;;;;;;5035897;28;20041;-50
2022/06/28 19:12:27;;;;;;;5.78;1.30;;;20.40;69.60;;;;;;5036276;28;20096;-48
2022/06/28 19:14:54;;;;;;;5.30;1.40;;;20.40;69.80;;;;;;5035919;28;20167;-53
2022/06/28 19:17:20;;;;;;;6.57;1.55;;;20.40;70.30;;;;;;5036369;28;20056;-49
2022/06/28 19:19:47;;;;;;;7.65;1.70;;;20.30;70.00;;;;;;5034999;28;20099;-50
2022/06/28 19:22:14;;;;;;;5.45;1.40;;;20.30;70.20;;;;;;5035959;28;20407;-52
2022/06/28 19:24:41;;;;;;;9.15;1.73;;;20.20;70.20;;;;;;5035769;28;20037;-52
2022/06/28 19:27:11;;;;;;;8.63;1.52;;;20.30;69.90;;;;;;5039629;28;20372;-51
2022/06/28 19:29:38;;;;;;;7.40;1.50;;;20.20;70.40;;;;;;5035902;28;20386;-53
2022/06/28 19:32:05;;;;;;;7.20;1.42;;;20.20;70.70;;;;;;5036146;28;20065;-55
2022/06/28 19:34:32;;;;;;;5.28;1.42;;;20.20;70.70;;;;;;5034329;28;20136;-50
2022/06/28 19:36:58;;;;;;;5.22;1.42;;;20.10;71.00;;;;;;5035207;28;20056;-50
2022/06/28 19:39:25;;;;;;;6.20;1.52;;;20.10;71.20;;;;;;5035583;28;20088;-52
2022/06/28 19:41:54;;;;;;;4.70;1.48;;;20.10;71.80;;;;;;5035879;28;20601;-53
2022/06/28 19:44:21;;;;;;;4.82;1.50;;;20.10;71.90;;;;;;5034341;28;20088;-50
2022/06/28 19:46:48;;;;;;;4.65;1.35;;;20.10;72.50;;;;;;5035523;28;20095;-53
2022/06/28 19:49:16;;;;;;;3.88;1.30;;;20.10;72.20;;;;;;5035332;28;20164;-52
2022/06/28 19:51:43;;;;;;;3.67;1.02;;;20.00;72.20;;;;;;5035593;28;20041;-52
2022/06/28 19:54:11;;;;;;;4.78;1.50;;;19.90;72.40;;;;;;5033946;28;20084;-52
2022/06/28 19:56:37;;;;;;;5.13;1.58;;;19.90;72.40;;;;;;5035207;28;20052;-53
2022/06/28 19:59:04;;;;;;;5.95;1.60;;;19.80;73.00;;;;;;5035579;28;20448;-52
2022/06/28 20:01:31;;;;;;;5.15;1.27;;;19.70;72.80;;;;;;5034070;28;20377;-53
2022/06/28 20:03:58;;;;;;;6.20;1.92;;;19.60;73.20;;;;;;5035145;28;20069;-53
2022/06/28 20:06:25;;;;;;;7.97;1.67;;;19.60;73.40;;;;;;5038895;28;20056;-50
2022/06/28 20:08:51;;;;;;;4.57;1.63;;;19.50;73.40;;;;;;5035079;28;20038;-51
2022/06/28 20:11:28;;;;;;;7.03;2.10;;;19.40;74.10;;;;;;5035107;28;20043;-54
2022/06/28 20:13:54;;;;;;;5.35;1.85;;;19.30;74.70;;;;;;5034646;28;20057;-51
2022/06/28 20:16:21;;;;;;;7.85;2.63;;;19.20;74.40;;;;;;5034952;28;20492;-50
2022/06/28 20:18:48;;;;;;;7.07;2.30;;;19.10;74.70;;;;;;5034923;28;20393;-50
2022/06/28 20:21:15;;;;;;;7.53;1.92;;;19.00;75.00;;;;;;5034783;28;20037;-51
2022/06/28 20:23:42;;;;;;;8.57;2.35;;;19.00;75.30;;;;;;5034621;28;20045;-52
2022/06/28 20:26:09;;;;;;;9.25;2.58;;;18.90;75.50;;;;;;5034708;28;20568;-51
2022/06/28 20:28:36;;;;;;;7.38;2.03;;;18.80;75.70;;;;;;5034695;28;20034;-51
2022/06/28 20:31:02;;;;;;;6.88;1.60;;;18.80;76.00;;;;;;5033466;28;20420;-49
2022/06/28 20:33:29;;;;;;;5.32;1.45;;;18.70;76.10;;;;;;5034549;28;20038;-49
2022/06/28 20:35:56;;;;;;;6.53;1.35;;;18.60;76.20;;;;;;5034867;28;20081;-54
2022/06/28 20:38:23;;;;;;;8.80;1.90;;;18.60;75.90;;;;;;5040507;28;20069;-49
2022/06/28 20:42:12;;;;;;;4.70;1.20;;;18.50;76.50;;;;;;5034523;28;20038;-49
2022/06/28 20:43:36;;;;;;;6.93;1.85;;;18.40;77.00;;;;;;5033255;28;20056;-50
2022/06/28 20:46:03;;;;;;;6.18;1.60;;;18.40;76.50;;;;;;5034558;28;20034;-54
2022/06/28 20:48:30;;;;;;;6.70;2.00;;;18.30;76.90;;;;;;5034324;28;20220;-51
2022/06/28 20:50:57;;;;;;;7.93;1.77;;;18.30;76.80;;;;;;5034263;28;20107;-50
2022/06/28 20:53:24;;;;;;;8.25;1.70;;;18.20;76.80;;;;;;5034233;28;20132;-48
2022/06/28 20:55:53;;;;;;;6.68;2.08;;;18.20;76.80;;;;;;5032897;28;20538;-51
2022/06/28 20:58:20;;;;;;;5.90;1.77;;;18.10;77.00;;;;;;5034120;28;20056;-51
2022/06/28 21:00:47;;;;;;;8.35;1.92;;;18.10;77.40;;;;;;5034114;28;20560;-49
2022/06/28 21:03:14;;;;;;;7.90;2.25;;;18.10;77.40;;;;;;5033968;28;20076;-49
2022/06/28 21:05:40;;;;;;;8.75;2.05;;;18.00;77.50;;;;;;5033974;28;20041;-48
2022/06/28 21:08:07;;;;;;;7.38;2.00;;;18.00;77.90;;;;;;5035779;28;20064;-51
2022/06/28 21:10:34;;;;;;;7.28;1.58;;;18.00;77.90;;;;;;5032578;28;20053;-51
2022/06/28 21:13:01;;;;;;;7.10;1.85;;;18.00;78.20;;;;;;5034062;28;20105;-50
2022/06/28 21:15:28;;;;;;;5.70;1.52;;;18.00;78.40;;;;;;5033440;28;20045;-47
2022/06/28 21:17:55;;;;;;;6.38;1.85;;;17.90;78.30;;;;;;5033728;28;20520;-47
2022/06/28 21:20:21;;;;;;;6.40;1.92;;;17.90;79.00;;;;;;5033877;28;20042;-47
2022/06/28 21:22:48;;;;;;;5.80;1.50;;;17.90;79.20;;;;;;5033285;28;20103;-53
2022/06/28 21:25:15;;;;;;;5.55;1.70;;;17.80;79.20;;;;;;5033543;28;20037;-55
2022/06/28 21:27:45;;;;;;;6.22;1.65;;;17.80;79.30;;;;;;5033682;28;20133;-51
2022/06/28 21:30:11;;;;;;;8.02;2.10;;;17.70;79.40;;;;;;5033574;28;20048;-53
2022/06/28 21:32:38;;;;;;;8.90;1.95;;;17.70;79.50;;;;;;5033434;28;20450;-49
2022/06/28 21:35:05;;;;;;;9.88;1.90;;;17.70;79.70;;;;;;5033547;28;20543;-54
2022/06/28 21:37:32;;;;;;;7.38;1.77;;;17.60;79.60;;;;;;5037658;28;20111;-46
2022/06/28 21:39:59;;;;;;;6.95;1.95;;;17.60;80.00;;;;;;5033440;28;20397;-54
2022/06/28 21:42:26;;;;;;;7.75;2.05;;;17.60;79.70;;;;;;5033349;28;20037;-51
2022/06/28 21:44:52;;;;;;;8.02;2.08;;;17.60;79.90;;;;;;5033341;28;20042;-50
2022/06/28 21:47:19;;;;;;;10.18;2.70;;;17.50;80.10;;;;;;5032097;28;20050;-44
2022/06/28 21:49:46;;;;;;;6.13;1.73;;;17.50;80.20;;;;;;5033102;28;20765;-49
2022/06/28 21:52:13;;;;;;;9.98;2.30;;;17.50;80.10;;;;;;5033130;28;20045;-52
2022/06/28 21:54:39;;;;;;;7.68;1.70;;;17.40;80.30;;;;;;5033218;28;20567;-47
2022/06/28 21:57:07;;;;;;;6.20;1.80;;;17.40;80.60;;;;;;5033127;28;20073;-53
2022/06/28 21:59:34;;;;;;;4.85;1.65;;;17.40;80.60;;;;;;5033198;28;20053;-48
2022/06/28 22:02:02;;;;;;;6.35;1.50;;;17.40;80.70;;;;;;5026943;28;20065;-49
2022/06/28 22:04:29;;;;;;;7.90;2.00;;;17.40;81.10;;;;;;5031068;28;20423;-46
2022/06/28 22:06:56;;;;;;;7.78;2.42;;;17.40;81.00;;;;;;5033896;28;20038;-54
2022/06/28 22:09:23;;;;;;;7.40;1.75;;;17.40;81.00;;;;;;5032435;28;20044;-46
2022/06/28 22:11:50;;;;;;;5.78;1.95;;;17.30;81.00;;;;;;5031400;28;20092;-43
2022/06/28 22:14:16;;;;;;;7.60;1.90;;;17.30;81.20;;;;;;5030151;28;20413;-48
2022/06/28 22:16:43;;;;;;;8.45;2.25;;;17.30;81.30;;;;;;5031034;28;20172;-48
2022/06/28 22:19:10;;;;;;;8.27;2.70;;;17.30;81.70;;;;;;5025847;28;20041;-50
2022/06/28 22:21:37;;;;;;;8.30;2.50;;;17.20;81.90;;;;;;5032291;28;20441;-51
2022/06/28 22:24:04;;;;;;;5.25;1.48;;;17.20;81.80;;;;;;5033874;28;20844;-52
2022/06/28 22:26:31;;;;;;;7.78;1.70;;;17.20;82.00;;;;;;5032220;28;20057;-53
2022/06/28 22:28:57;;;;;;;9.10;1.58;;;17.10;82.10;;;;;;5032219;28;20038;-51
2022/06/28 22:31:24;;;;;;;10.20;2.33;;;17.10;82.30;;;;;;5032409;28;20065;-47
2022/06/28 22:33:51;;;;;;;8.90;2.00;;;17.00;82.70;;;;;;5028177;28;20042;-51
2022/06/28 22:36:18;;;;;;;5.43;2.25;;;17.00;82.50;;;;;;5036266;28;20428;-52
2022/06/28 22:38:45;;;;;;;8.90;2.40;;;17.00;82.60;;;;;;5036050;28;20041;-53
2022/06/28 22:41:11;;;;;;;9.88;2.60;;;17.00;82.70;;;;;;5035358;28;20033;-50
2022/06/28 22:43:38;;;;;;;8.55;2.60;;;17.00;82.80;;;;;;5036848;28;20091;-48
2022/06/28 22:46:05;;;;;;;8.35;2.47;;;17.00;82.90;;;;;;5033515;28;20047;-49
2022/06/28 22:48:32;;;;;;;7.65;2.47;;;16.90;83.00;;;;;;5033404;28;20038;-47
2022/06/28 22:50:59;;;;;;;8.25;2.83;;;17.00;83.10;;;;;;5033220;28;20037;-47
2022/06/28 22:53:26;;;;;;;7.30;2.20;;;16.90;82.90;;;;;;5033109;28;20069;-48
2022/06/28 22:55:53;;;;;;;8.30;2.40;;;17.00;83.10;;;;;;5035973;28;20065;-49
2022/06/28 22:58:19;;;;;;;8.23;1.98;;;16.90;83.30;;;;;;5032860;28;20045;-48
2022/06/28 23:00:46;;;;;;;6.05;2.10;;;16.90;83.30;;;;;;5035938;28;20037;-46
2022/06/28 23:03:13;;;;;;;4.00;1.90;;;16.90;83.30;;;;;;5036017;28;20053;-51
